AFL3544 UIII-UNKL
Flight info
| Callsign | AFL3544 |
|---|---|
| Flight time | N/A |
| Altitude | 32000 |
| Route | K0835F320 BOGRA4D BOGRA A815 TUTEK A91 SUKOR W176 TISBU A311 LALOM LALOM2R |
| Aircraft | A20N/M-SDE2E3FGHIRWXY/LB1 |
Departure
| Time | 2026-05-01 12:50 |
|---|---|
| Airport | Irkutsk International Airport (UIII) |
Arrival
| Time | N/A |
|---|---|
| Airport | Krasnoyarsk International Airport (UNKL) |
| Time | Latitude | Longitude | Altitude | Speed | Heading |
|---|---|---|---|---|---|
| 2026-05-01 12:09 | 52.27071 | 104.36968 | 1629 ft | 0 kts | 200° |
| 2026-05-01 12:26 | 52.27070 | 104.36968 | 1629 ft | 0 kts | 200° |
| 2026-05-01 12:26 | 52.27051 | 104.36960 | 1629 ft | 5 kts | 182° |
| 2026-05-01 12:27 | 52.27020 | 104.37005 | 1629 ft | 4 kts | 116° |
| 2026-05-01 12:27 | 52.26999 | 104.37268 | 1631 ft | 18 kts | 91° |
| 2026-05-01 12:28 | 52.26879 | 104.37744 | 1634 ft | 24 kts | 113° |
| 2026-05-01 12:28 | 52.26806 | 104.38016 | 1637 ft | 28 kts | 113° |
| 2026-05-01 12:28 | 52.26644 | 104.38625 | 1646 ft | 30 kts | 113° |
| 2026-05-01 12:29 | 52.26576 | 104.38883 | 1649 ft | 22 kts | 114° |
| 2026-05-01 12:29 | 52.26508 | 104.39138 | 1653 ft | 27 kts | 113° |
| 2026-05-01 12:29 | 52.26356 | 104.39710 | 1662 ft | 28 kts | 113° |
| 2026-05-01 12:30 | 52.26196 | 104.40312 | 1673 ft | 25 kts | 113° |
| 2026-05-01 12:30 | 52.26122 | 104.40592 | 1681 ft | 29 kts | 113° |
| 2026-05-01 12:30 | 52.26053 | 104.40849 | 1677 ft | 17 kts | 113° |
| 2026-05-01 12:31 | 52.26002 | 104.41043 | 1683 ft | 10 kts | 113° |
| 2026-05-01 12:31 | 52.26005 | 104.41150 | 1688 ft | 13 kts | 62° |
| 2026-05-01 12:31 | 52.26089 | 104.41227 | 1683 ft | 15 kts | 24° |
| 2026-05-01 12:31 | 52.26106 | 104.41239 | 1685 ft | 0 kts | 23° |
| 2026-05-01 12:48 | 52.26117 | 104.41247 | 1664 ft | 4 kts | 24° |
| 2026-05-01 12:48 | 52.26165 | 104.41282 | 1686 ft | 11 kts | 24° |
| 2026-05-01 12:48 | 52.26246 | 104.41217 | 1682 ft | 15 kts | 295° |
| 2026-05-01 12:49 | 52.26250 | 104.41201 | 1683 ft | 7 kts | 295° |
| 2026-05-01 12:49 | 52.26371 | 104.40751 | 1677 ft | 79 kts | 294° |
| 2026-05-01 12:49 | 52.26675 | 104.39617 | 1663 ft | 137 kts | 293° |
| 2026-05-01 12:49 | 52.27109 | 104.37958 | 1682 ft | 177 kts | 292° |
| 2026-05-01 12:50 | 52.27601 | 104.36014 | 2112 ft | 189 kts | 292° |
| 2026-05-01 12:50 | 52.28096 | 104.33997 | 2818 ft | 193 kts | 292° |
| 2026-05-01 12:50 | 52.28577 | 104.31934 | 3457 ft | 197 kts | 292° |
| 2026-05-01 12:50 | 52.29116 | 104.29801 | 3807 ft | 216 kts | 295° |
| 2026-05-01 12:51 | 52.29985 | 104.27706 | 4139 ft | 233 kts | 318° |
| 2026-05-01 12:51 | 52.31422 | 104.26336 | 4464 ft | 250 kts | 340° |
| 2026-05-01 12:51 | 52.34787 | 104.24506 | 5992 ft | 257 kts | 340° |
| 2026-05-01 12:52 | 52.36482 | 104.23567 | 6950 ft | 257 kts | 339° |
| 2026-05-01 12:52 | 52.39862 | 104.21668 | 8916 ft | 258 kts | 339° |
| 2026-05-01 12:52 | 52.41564 | 104.20709 | 9898 ft | 259 kts | 339° |
| 2026-05-01 12:53 | 52.45120 | 104.18694 | 10935 ft | 291 kts | 339° |
| 2026-05-01 12:53 | 52.47104 | 104.17565 | 11288 ft | 310 kts | 339° |
| 2026-05-01 12:53 | 52.49155 | 104.16402 | 12053 ft | 314 kts | 339° |
| 2026-05-01 12:54 | 52.51228 | 104.15226 | 12848 ft | 317 kts | 339° |
| 2026-05-01 12:54 | 52.55454 | 104.12823 | 14376 ft | 324 kts | 339° |
| 2026-05-01 12:54 | 52.57587 | 104.11608 | 15154 ft | 325 kts | 339° |
| 2026-05-01 12:55 | 52.61883 | 104.09154 | 16668 ft | 328 kts | 340° |
| 2026-05-01 12:55 | 52.64044 | 104.07918 | 17428 ft | 330 kts | 340° |
| 2026-05-01 12:55 | 52.66221 | 104.06670 | 18126 ft | 333 kts | 340° |
| 2026-05-01 12:56 | 52.68408 | 104.05416 | 18808 ft | 334 kts | 340° |
| 2026-05-01 12:56 | 52.70607 | 104.04154 | 19438 ft | 335 kts | 340° |
| 2026-05-01 12:56 | 52.72814 | 104.02885 | 19944 ft | 337 kts | 340° |
| 2026-05-01 12:56 | 52.75030 | 104.01610 | 20109 ft | 337 kts | 340° |
| 2026-05-01 12:57 | 52.77244 | 104.00334 | 20143 ft | 337 kts | 340° |
| 2026-05-01 12:57 | 52.81688 | 103.97771 | 20411 ft | 341 kts | 340° |
| 2026-05-01 12:57 | 52.83923 | 103.96480 | 21157 ft | 339 kts | 340° |
| 2026-05-01 12:58 | 52.86145 | 103.95193 | 21842 ft | 339 kts | 340° |
| 2026-05-01 12:58 | 52.88383 | 103.93897 | 22411 ft | 342 kts | 340° |
| 2026-05-01 12:58 | 52.90631 | 103.92592 | 23038 ft | 343 kts | 340° |
| 2026-05-01 12:59 | 52.95157 | 103.89962 | 24141 ft | 347 kts | 340° |
| 2026-05-01 12:59 | 52.97443 | 103.88632 | 24611 ft | 349 kts | 340° |
| 2026-05-01 12:59 | 53.02045 | 103.85949 | 25554 ft | 352 kts | 341° |
| 2026-05-01 13:00 | 53.06692 | 103.83232 | 26454 ft | 356 kts | 341° |
| 2026-05-01 13:00 | 53.09001 | 103.81880 | 26866 ft | 358 kts | 341° |
| 2026-05-01 13:01 | 53.13755 | 103.79093 | 27703 ft | 361 kts | 341° |
| 2026-05-01 13:01 | 53.16062 | 103.77553 | 28104 ft | 364 kts | 336° |
| 2026-05-01 13:01 | 53.20660 | 103.73936 | 28859 ft | 367 kts | 336° |
| 2026-05-01 13:02 | 53.22977 | 103.72134 | 29217 ft | 369 kts | 336° |
| 2026-05-01 13:07 | 53.63498 | 103.12754 | 32152 ft | 395 kts | 306° |
| 2026-05-01 13:07 | 53.64846 | 103.08720 | 32155 ft | 395 kts | 306° |
| 2026-05-01 13:08 | 53.67536 | 103.00648 | 32156 ft | 395 kts | 306° |
| 2026-05-01 13:08 | 53.70207 | 102.92606 | 32161 ft | 395 kts | 306° |
| 2026-05-01 13:09 | 53.72888 | 102.84508 | 32155 ft | 395 kts | 306° |
| 2026-05-01 13:09 | 53.75563 | 102.76404 | 32157 ft | 395 kts | 306° |
| 2026-05-01 13:10 | 53.78232 | 102.68290 | 32152 ft | 395 kts | 306° |
| 2026-05-01 13:10 | 53.80893 | 102.60174 | 32154 ft | 394 kts | 306° |
| 2026-05-01 13:11 | 53.83550 | 102.52041 | 32146 ft | 394 kts | 306° |
| 2026-05-01 13:11 | 53.86198 | 102.43908 | 32149 ft | 394 kts | 306° |
| 2026-05-01 13:12 | 53.88842 | 102.35759 | 32153 ft | 394 kts | 306° |
| 2026-05-01 13:12 | 53.91479 | 102.27605 | 32161 ft | 395 kts | 305° |
| 2026-05-01 13:13 | 53.93667 | 102.20818 | 32159 ft | 395 kts | 305° |
| 2026-05-01 13:13 | 53.96297 | 102.12634 | 32156 ft | 394 kts | 305° |
| 2026-05-01 13:14 | 53.98920 | 102.04446 | 32160 ft | 394 kts | 305° |
| 2026-05-01 13:14 | 54.01532 | 101.96262 | 32154 ft | 394 kts | 305° |
| 2026-05-01 13:15 | 54.04143 | 101.88070 | 32154 ft | 394 kts | 305° |
| 2026-05-01 13:15 | 54.06757 | 101.79878 | 32157 ft | 394 kts | 305° |
| 2026-05-01 13:16 | 54.09368 | 101.71670 | 32153 ft | 394 kts | 305° |
| 2026-05-01 13:16 | 54.11968 | 101.63458 | 32152 ft | 394 kts | 305° |
| 2026-05-01 13:17 | 54.17150 | 101.47004 | 32152 ft | 393 kts | 305° |
| 2026-05-01 13:18 | 54.21017 | 101.34649 | 32146 ft | 393 kts | 304° |
| 2026-05-01 13:18 | 54.23588 | 101.26403 | 32149 ft | 393 kts | 304° |
| 2026-05-01 13:19 | 54.26152 | 101.18147 | 32147 ft | 393 kts | 304° |
| 2026-05-01 13:20 | 54.29975 | 101.05788 | 32145 ft | 393 kts | 304° |
| 2026-05-01 13:20 | 54.32527 | 100.97500 | 32138 ft | 393 kts | 304° |
| 2026-05-01 13:21 | 54.36346 | 100.85044 | 32139 ft | 393 kts | 304° |
| 2026-05-01 13:21 | 54.38887 | 100.76722 | 32143 ft | 394 kts | 304° |
| 2026-05-01 13:22 | 54.41421 | 100.68392 | 32154 ft | 394 kts | 304° |
| 2026-05-01 13:22 | 54.43950 | 100.60047 | 32140 ft | 394 kts | 304° |
| 2026-05-01 13:23 | 54.46477 | 100.51683 | 32145 ft | 394 kts | 304° |
| 2026-05-01 13:23 | 54.48999 | 100.43306 | 32147 ft | 394 kts | 304° |
| 2026-05-01 13:24 | 54.51515 | 100.34918 | 32143 ft | 395 kts | 304° |
| 2026-05-01 13:25 | 54.55281 | 100.22306 | 32144 ft | 395 kts | 303° |
| 2026-05-01 13:25 | 54.57786 | 100.13882 | 32148 ft | 395 kts | 303° |
| 2026-05-01 13:26 | 54.60286 | 100.05442 | 32152 ft | 395 kts | 303° |
| 2026-05-01 13:26 | 54.62780 | 99.96992 | 32147 ft | 395 kts | 303° |
| 2026-05-01 13:27 | 54.65267 | 99.88536 | 32150 ft | 395 kts | 303° |
| 2026-05-01 13:27 | 54.68972 | 99.75884 | 32150 ft | 395 kts | 303° |
| 2026-05-01 13:28 | 54.72677 | 99.63161 | 32146 ft | 395 kts | 303° |
| 2026-05-01 13:29 | 54.77600 | 99.46153 | 32145 ft | 395 kts | 303° |
| 2026-05-01 13:31 | 54.84929 | 99.20596 | 32145 ft | 394 kts | 303° |
| 2026-05-01 13:32 | 54.90581 | 98.98861 | 32147 ft | 399 kts | 297° |
| 2026-05-01 13:33 | 54.95453 | 98.76318 | 32158 ft | 399 kts | 297° |
| 2026-05-01 13:34 | 54.99295 | 98.58273 | 32165 ft | 398 kts | 297° |
| 2026-05-01 13:35 | 55.02154 | 98.44734 | 32163 ft | 398 kts | 297° |
| 2026-05-01 13:36 | 55.05010 | 98.31123 | 32155 ft | 398 kts | 297° |
| 2026-05-01 13:36 | 55.07851 | 98.17488 | 32161 ft | 399 kts | 297° |
| 2026-05-01 13:37 | 55.09737 | 98.08389 | 32152 ft | 399 kts | 297° |
| 2026-05-01 13:37 | 55.11617 | 97.99274 | 32162 ft | 399 kts | 297° |
| 2026-05-01 13:38 | 55.14430 | 97.85556 | 32161 ft | 399 kts | 297° |
| 2026-05-01 13:39 | 55.16292 | 97.76426 | 32148 ft | 398 kts | 296° |
| 2026-05-01 13:39 | 55.18144 | 97.67299 | 32147 ft | 398 kts | 296° |
| 2026-05-01 13:40 | 55.19989 | 97.58170 | 32142 ft | 398 kts | 296° |
| 2026-05-01 13:40 | 55.21827 | 97.49031 | 32140 ft | 398 kts | 296° |
| 2026-05-01 13:41 | 55.23658 | 97.39885 | 32135 ft | 397 kts | 296° |
| 2026-05-01 13:41 | 55.25480 | 97.30742 | 32137 ft | 398 kts | 296° |
| 2026-05-01 13:42 | 55.27311 | 97.21595 | 32136 ft | 398 kts | 296° |
| 2026-05-01 13:42 | 55.29164 | 97.12448 | 32140 ft | 397 kts | 296° |
| 2026-05-01 13:43 | 55.31007 | 97.03297 | 32138 ft | 398 kts | 296° |
| 2026-05-01 13:43 | 55.32844 | 96.94126 | 32141 ft | 398 kts | 296° |
| 2026-05-01 13:44 | 55.34663 | 96.84992 | 32141 ft | 399 kts | 296° |
| 2026-05-01 13:44 | 55.35577 | 96.80389 | 32010 ft | 400 kts | 295° |
| 2026-05-01 13:44 | 55.36489 | 96.75783 | 31751 ft | 398 kts | 295° |
| 2026-05-01 13:44 | 55.37401 | 96.71166 | 31499 ft | 400 kts | 295° |
| 2026-05-01 13:45 | 55.38314 | 96.66535 | 31243 ft | 402 kts | 295° |
| 2026-05-01 13:45 | 55.39229 | 96.61887 | 30988 ft | 403 kts | 295° |
| 2026-05-01 13:45 | 55.40142 | 96.57228 | 30741 ft | 403 kts | 295° |
| 2026-05-01 13:45 | 55.41051 | 96.52579 | 30504 ft | 401 kts | 295° |
| 2026-05-01 13:46 | 55.41955 | 96.47941 | 30247 ft | 400 kts | 295° |
| 2026-05-01 13:46 | 55.42854 | 96.43322 | 29966 ft | 399 kts | 295° |
| 2026-05-01 13:46 | 55.43750 | 96.38714 | 29676 ft | 397 kts | 294° |
| 2026-05-01 13:46 | 55.44642 | 96.34110 | 29398 ft | 396 kts | 294° |
| 2026-05-01 13:47 | 55.45530 | 96.29518 | 29109 ft | 395 kts | 294° |
| 2026-05-01 13:47 | 55.46414 | 96.24934 | 28831 ft | 394 kts | 294° |
| 2026-05-01 13:47 | 55.47293 | 96.20367 | 28555 ft | 393 kts | 294° |
| 2026-05-01 13:47 | 55.48168 | 96.15809 | 28288 ft | 392 kts | 294° |
| 2026-05-01 13:48 | 55.49039 | 96.11260 | 28015 ft | 391 kts | 294° |
| 2026-05-01 13:48 | 55.49906 | 96.06721 | 27746 ft | 390 kts | 294° |
| 2026-05-01 13:48 | 55.50771 | 96.02191 | 27481 ft | 389 kts | 294° |
| 2026-05-01 13:48 | 55.51630 | 95.97668 | 27216 ft | 388 kts | 294° |
| 2026-05-01 13:49 | 55.52488 | 95.93149 | 26954 ft | 388 kts | 293° |
| 2026-05-01 13:49 | 55.53342 | 95.88644 | 26699 ft | 387 kts | 293° |
| 2026-05-01 13:49 | 55.54193 | 95.84141 | 26442 ft | 386 kts | 293° |
| 2026-05-01 13:49 | 55.55041 | 95.79648 | 26188 ft | 385 kts | 293° |
| 2026-05-01 13:50 | 55.55885 | 95.75162 | 25938 ft | 385 kts | 293° |
| 2026-05-01 13:50 | 55.56726 | 95.70682 | 25688 ft | 384 kts | 293° |
| 2026-05-01 13:50 | 55.57563 | 95.66212 | 25443 ft | 383 kts | 293° |
| 2026-05-01 13:50 | 55.58397 | 95.61743 | 25201 ft | 382 kts | 293° |
| 2026-05-01 13:51 | 55.59227 | 95.57288 | 24961 ft | 381 kts | 292° |
| 2026-05-01 13:51 | 55.60055 | 95.52833 | 24727 ft | 381 kts | 292° |
| 2026-05-01 13:51 | 55.60879 | 95.48394 | 24482 ft | 380 kts | 292° |
| 2026-05-01 13:51 | 55.61701 | 95.43955 | 24248 ft | 380 kts | 292° |
| 2026-05-01 13:52 | 55.62520 | 95.39516 | 24012 ft | 379 kts | 292° |
| 2026-05-01 13:52 | 55.63324 | 95.35146 | 23782 ft | 378 kts | 292° |
| 2026-05-01 13:52 | 55.64138 | 95.30718 | 23515 ft | 377 kts | 292° |
| 2026-05-01 13:52 | 55.64946 | 95.26309 | 23247 ft | 376 kts | 292° |
| 2026-05-01 13:53 | 55.65749 | 95.21915 | 22974 ft | 374 kts | 292° |
| 2026-05-01 13:53 | 55.67342 | 95.13172 | 22436 ft | 372 kts | 292° |
| 2026-05-01 13:53 | 55.68132 | 95.08820 | 22172 ft | 370 kts | 291° |
| 2026-05-01 13:54 | 55.68918 | 95.04480 | 21904 ft | 369 kts | 291° |
| 2026-05-01 13:54 | 55.69700 | 95.00150 | 21644 ft | 368 kts | 291° |
| 2026-05-01 13:54 | 55.70477 | 94.95843 | 21340 ft | 367 kts | 291° |
| 2026-05-01 13:54 | 55.71252 | 94.91533 | 20853 ft | 366 kts | 291° |
| 2026-05-01 13:55 | 55.72021 | 94.87249 | 20359 ft | 362 kts | 291° |
| 2026-05-01 13:55 | 55.72777 | 94.83020 | 19863 ft | 358 kts | 291° |
| 2026-05-01 13:55 | 55.73525 | 94.78834 | 19379 ft | 353 kts | 291° |
| 2026-05-01 13:55 | 55.74262 | 94.74697 | 18895 ft | 349 kts | 290° |
| 2026-05-01 13:56 | 55.74989 | 94.70607 | 18409 ft | 346 kts | 290° |
| 2026-05-01 13:56 | 55.75708 | 94.66560 | 17902 ft | 342 kts | 290° |
| 2026-05-01 13:56 | 55.76416 | 94.62561 | 17430 ft | 337 kts | 290° |
| 2026-05-01 13:56 | 55.77112 | 94.58620 | 16964 ft | 332 kts | 290° |
| 2026-05-01 13:57 | 55.77799 | 94.54727 | 16510 ft | 328 kts | 290° |
| 2026-05-01 13:57 | 55.78249 | 94.52170 | 16203 ft | 326 kts | 289° |
| 2026-05-01 13:57 | 55.79146 | 94.47063 | 15601 ft | 322 kts | 289° |
| 2026-05-01 13:57 | 55.79808 | 94.43285 | 15157 ft | 319 kts | 289° |
| 2026-05-01 13:58 | 55.80463 | 94.39539 | 14716 ft | 316 kts | 289° |
| 2026-05-01 13:58 | 55.81110 | 94.35829 | 14274 ft | 314 kts | 289° |
| 2026-05-01 13:58 | 55.81754 | 94.32137 | 13827 ft | 312 kts | 289° |
| 2026-05-01 13:58 | 55.82401 | 94.28467 | 13372 ft | 309 kts | 289° |
| 2026-05-01 13:59 | 55.83086 | 94.24720 | 12932 ft | 333 kts | 289° |
| 2026-05-01 13:59 | 55.83576 | 94.22074 | 12617 ft | 346 kts | 289° |
| 2026-05-01 13:59 | 55.84336 | 94.17947 | 12123 ft | 354 kts | 289° |
| 2026-05-01 13:59 | 55.85345 | 94.12422 | 11470 ft | 353 kts | 289° |
| 2026-05-01 14:00 | 55.86095 | 94.08290 | 10976 ft | 348 kts | 289° |
| 2026-05-01 14:00 | 55.86830 | 94.04222 | 10612 ft | 340 kts | 288° |
| 2026-05-01 14:00 | 55.87536 | 94.00303 | 10462 ft | 325 kts | 288° |
| 2026-05-01 14:00 | 55.87995 | 93.97749 | 10373 ft | 316 kts | 288° |
| 2026-05-01 14:01 | 55.88650 | 93.94103 | 10248 ft | 302 kts | 288° |
| 2026-05-01 14:01 | 55.89275 | 93.90617 | 10130 ft | 289 kts | 288° |
| 2026-05-01 14:01 | 55.89879 | 93.87245 | 9809 ft | 284 kts | 288° |
| 2026-05-01 14:01 | 55.90477 | 93.83902 | 9377 ft | 282 kts | 288° |
| 2026-05-01 14:02 | 55.91074 | 93.80617 | 9160 ft | 273 kts | 290° |
| 2026-05-01 14:02 | 55.91709 | 93.77468 | 9121 ft | 277 kts | 291° |
| 2026-05-01 14:02 | 55.92384 | 93.74249 | 9117 ft | 276 kts | 291° |
| 2026-05-01 14:02 | 55.93055 | 93.71043 | 9114 ft | 276 kts | 291° |
| 2026-05-01 14:03 | 55.93721 | 93.67826 | 9117 ft | 277 kts | 291° |
| 2026-05-01 14:03 | 55.94382 | 93.64602 | 9112 ft | 276 kts | 290° |
| 2026-05-01 14:03 | 55.95037 | 93.61386 | 9071 ft | 275 kts | 290° |
| 2026-05-01 14:03 | 55.95691 | 93.58161 | 8722 ft | 278 kts | 290° |
| 2026-05-01 14:04 | 55.96348 | 93.54914 | 8292 ft | 279 kts | 290° |
| 2026-05-01 14:04 | 55.97003 | 93.51673 | 8025 ft | 273 kts | 290° |
| 2026-05-01 14:04 | 55.97643 | 93.48499 | 7915 ft | 274 kts | 290° |
| 2026-05-01 14:04 | 55.98289 | 93.45291 | 7806 ft | 274 kts | 290° |
| 2026-05-01 14:05 | 55.98932 | 93.42096 | 7689 ft | 273 kts | 290° |
| 2026-05-01 14:05 | 55.99573 | 93.38907 | 7575 ft | 273 kts | 290° |
| 2026-05-01 14:05 | 56.00212 | 93.35722 | 7467 ft | 273 kts | 290° |
| 2026-05-01 14:05 | 56.00851 | 93.32530 | 7349 ft | 272 kts | 290° |
| 2026-05-01 14:06 | 56.01489 | 93.29341 | 7242 ft | 272 kts | 290° |
| 2026-05-01 14:06 | 56.02205 | 93.26215 | 7136 ft | 271 kts | 298° |
| 2026-05-01 14:06 | 56.03222 | 93.23376 | 7011 ft | 272 kts | 307° |
| 2026-05-01 14:06 | 56.04375 | 93.20690 | 6740 ft | 271 kts | 307° |
| 2026-05-01 14:07 | 56.05510 | 93.18010 | 6640 ft | 271 kts | 307° |
| 2026-05-01 14:07 | 56.06646 | 93.15314 | 6525 ft | 271 kts | 307° |
| 2026-05-01 14:07 | 56.07777 | 93.12620 | 6421 ft | 271 kts | 307° |
| 2026-05-01 14:08 | 56.10029 | 93.07250 | 6196 ft | 270 kts | 307° |
| 2026-05-01 14:08 | 56.11152 | 93.04569 | 6083 ft | 270 kts | 307° |
| 2026-05-01 14:08 | 56.12279 | 93.01875 | 5970 ft | 270 kts | 307° |
| 2026-05-01 14:08 | 56.13402 | 92.99189 | 5860 ft | 269 kts | 307° |
| 2026-05-01 14:09 | 56.14524 | 92.96502 | 5749 ft | 269 kts | 307° |
| 2026-05-01 14:09 | 56.15645 | 92.93815 | 5648 ft | 269 kts | 307° |
| 2026-05-01 14:09 | 56.16762 | 92.91133 | 5532 ft | 269 kts | 306° |
| 2026-05-01 14:09 | 56.17865 | 92.88484 | 5415 ft | 268 kts | 306° |
| 2026-05-01 14:10 | 56.18980 | 92.85802 | 5315 ft | 268 kts | 306° |
| 2026-05-01 14:10 | 56.20093 | 92.83121 | 5211 ft | 268 kts | 306° |
| 2026-05-01 14:10 | 56.21204 | 92.80443 | 5097 ft | 267 kts | 306° |
| 2026-05-01 14:10 | 56.22314 | 92.77763 | 4987 ft | 267 kts | 306° |
| 2026-05-01 14:11 | 56.23421 | 92.75088 | 4883 ft | 267 kts | 306° |
| 2026-05-01 14:11 | 56.25631 | 92.69734 | 4664 ft | 266 kts | 305° |